sensor_id;sensor_type;location;lat;lon;timestamp;temperature;humidity
20946;DHT22;10632;51.276;7.116;2022-09-13T00:02:18;18.20;99.90
20946;DHT22;10632;51.276;7.116;2022-09-13T00:04:45;18.20;99.90
20946;DHT22;10632;51.276;7.116;2022-09-13T00:07:12;18.20;99.90
20946;DHT22;10632;51.276;7.116;2022-09-13T00:09:38;18.20;99.90
20946;DHT22;10632;51.276;7.116;2022-09-13T00:12:06;18.20;99.90
20946;DHT22;10632;51.276;7.116;2022-09-13T00:14:35;18.10;99.90
20946;DHT22;10632;51.276;7.116;2022-09-13T00:17:02;18.10;99.90
20946;DHT22;10632;51.276;7.116;2022-09-13T00:19:29;18.00;99.90
20946;DHT22;10632;51.276;7.116;2022-09-13T00:21:56;18.00;99.90
20946;DHT22;10632;51.276;7.116;2022-09-13T00:24:23;18.00;99.90
20946;DHT22;10632;51.276;7.116;2022-09-13T00:26:50;18.00;99.90
20946;DHT22;10632;51.276;7.116;2022-09-13T00:29:17;18.00;99.90
20946;DHT22;10632;51.276;7.116;2022-09-13T00:31:45;18.00;99.90
20946;DHT22;10632;51.276;7.116;2022-09-13T00:34:12;18.00;99.90
20946;DHT22;10632;51.276;7.116;2022-09-13T00:36:39;18.00;99.90
20946;DHT22;10632;51.276;7.116;2022-09-13T00:39:06;17.90;99.90
20946;DHT22;10632;51.276;7.116;2022-09-13T00:41:33;18.00;99.90
20946;DHT22;10632;51.276;7.116;2022-09-13T00:44:00;17.90;99.90
20946;DHT22;10632;51.276;7.116;2022-09-13T00:46:32;18.00;99.90
20946;DHT22;10632;51.276;7.116;2022-09-13T00:49:06;18.00;99.90
20946;DHT22;10632;51.276;7.116;2022-09-13T00:51:38;18.00;99.90
20946;DHT22;10632;51.276;7.116;2022-09-13T00:54:06;18.00;99.90
20946;DHT22;10632;51.276;7.116;2022-09-13T00:56:35;18.00;99.90
20946;DHT22;10632;51.276;7.116;2022-09-13T00:59:06;18.10;99.90
20946;DHT22;10632;51.276;7.116;2022-09-13T01:01:39;18.10;99.90
20946;DHT22;10632;51.276;7.116;2022-09-13T01:04:08;18.10;99.90
20946;DHT22;10632;51.276;7.116;2022-09-13T01:06:36;18.10;99.90
20946;DHT22;10632;51.276;7.116;2022-09-13T01:09:04;18.10;99.90
20946;DHT22;10632;51.276;7.116;2022-09-13T01:11:39;18.00;99.90
20946;DHT22;10632;51.276;7.116;2022-09-13T01:14:08;18.00;99.90
20946;DHT22;10632;51.276;7.116;2022-09-13T01:16:35;18.10;99.90
20946;DHT22;10632;51.276;7.116;2022-09-13T01:19:02;18.00;99.90
20946;DHT22;10632;51.276;7.116;2022-09-13T01:24:56;18.00;99.90
20946;DHT22;10632;51.276;7.116;2022-09-13T01:27:44;18.00;99.90
20946;DHT22;10632;51.276;7.116;2022-09-13T01:30:18;18.00;99.90
20946;DHT22;10632;51.276;7.116;2022-09-13T01:35:56;18.00;99.90
20946;DHT22;10632;51.276;7.116;2022-09-13T01:38:44;18.00;99.90
20946;DHT22;10632;51.276;7.116;2022-09-13T01:41:31;18.00;99.90
20946;DHT22;10632;51.276;7.116;2022-09-13T01:44:07;18.00;99.90
20946;DHT22;10632;51.276;7.116;2022-09-13T01:46:46;18.00;99.90
20946;DHT22;10632;51.276;7.116;2022-09-13T01:49:18;17.90;99.90
20946;DHT22;10632;51.276;7.116;2022-09-13T01:51:51;18.00;99.90
20946;DHT22;10632;51.276;7.116;2022-09-13T01:54:24;17.90;99.90
20946;DHT22;10632;51.276;7.116;2022-09-13T01:57:00;17.90;99.90
20946;DHT22;10632;51.276;7.116;2022-09-13T01:59:35;17.90;99.90
20946;DHT22;10632;51.276;7.116;2022-09-13T02:02:11;17.90;99.90
20946;DHT22;10632;51.276;7.116;2022-09-13T02:04:43;17.90;99.90
20946;DHT22;10632;51.276;7.116;2022-09-13T02:07:17;17.90;99.90
20946;DHT22;10632;51.276;7.116;2022-09-13T02:10:11;17.90;99.90
20946;DHT22;10632;51.276;7.116;2022-09-13T02:12:48;17.80;99.90
20946;DHT22;10632;51.276;7.116;2022-09-13T02:15:32;17.80;99.90
20946;DHT22;10632;51.276;7.116;2022-09-13T02:18:22;17.80;99.90
20946;DHT22;10632;51.276;7.116;2022-09-13T02:21:08;17.80;99.90
20946;DHT22;10632;51.276;7.116;2022-09-13T02:23:50;17.80;99.90
20946;DHT22;10632;51.276;7.116;2022-09-13T02:26:27;17.70;99.90
20946;DHT22;10632;51.276;7.116;2022-09-13T02:32:01;17.70;99.90
20946;DHT22;10632;51.276;7.116;2022-09-13T02:34:40;17.70;99.90
20946;DHT22;10632;51.276;7.116;2022-09-13T02:37:37;17.70;99.90
20946;DHT22;10632;51.276;7.116;2022-09-13T02:40:15;17.60;99.90
20946;DHT22;10632;51.276;7.116;2022-09-13T02:42:51;17.60;99.90
20946;DHT22;10632;51.276;7.116;2022-09-13T02:45:21;17.60;99.90
20946;DHT22;10632;51.276;7.116;2022-09-13T02:47:55;17.60;99.90
20946;DHT22;10632;51.276;7.116;2022-09-13T02:50:35;17.60;99.90
20946;DHT22;10632;51.276;7.116;2022-09-13T02:53:14;17.60;99.90
20946;DHT22;10632;51.276;7.116;2022-09-13T02:55:54;17.50;99.90
20946;DHT22;10632;51.276;7.116;2022-09-13T02:58:48;17.60;99.90
20946;DHT22;10632;51.276;7.116;2022-09-13T03:01:29;17.60;99.90
20946;DHT22;10632;51.276;7.116;2022-09-13T03:04:02;17.60;99.90
20946;DHT22;10632;51.276;7.116;2022-09-13T03:06:33;17.60;99.90
20946;DHT22;10632;51.276;7.116;2022-09-13T03:09:03;17.60;99.90
20946;DHT22;10632;51.276;7.116;2022-09-13T03:11:42;17.60;99.90
20946;DHT22;10632;51.276;7.116;2022-09-13T03:14:26;17.70;99.90
20946;DHT22;10632;51.276;7.116;2022-09-13T03:17:13;17.70;99.90
20946;DHT22;10632;51.276;7.116;2022-09-13T03:20:00;17.70;99.90
20946;DHT22;10632;51.276;7.116;2022-09-13T03:26:24;17.70;99.90
20946;DHT22;10632;51.276;7.116;2022-09-13T03:29:08;17.70;99.90
20946;DHT22;10632;51.276;7.116;2022-09-13T03:31:44;17.70;99.90
20946;DHT22;10632;51.276;7.116;2022-09-13T03:34:24;17.70;99.90
20946;DHT22;10632;51.276;7.116;2022-09-13T03:37:03;17.70;99.90
20946;DHT22;10632;51.276;7.116;2022-09-13T03:39:35;17.60;99.90
20946;DHT22;10632;51.276;7.116;2022-09-13T03:42:11;17.60;99.90
20946;DHT22;10632;51.276;7.116;2022-09-13T03:44:43;17.50;99.90
20946;DHT22;10632;51.276;7.116;2022-09-13T03:47:12;17.50;99.90
20946;DHT22;10632;51.276;7.116;2022-09-13T03:49:40;17.40;99.90
20946;DHT22;10632;51.276;7.116;2022-09-13T03:52:17;17.40;99.90
20946;DHT22;10632;51.276;7.116;2022-09-13T03:54:56;17.30;99.90
20946;DHT22;10632;51.276;7.116;2022-09-13T03:57:33;17.30;99.90
20946;DHT22;10632;51.276;7.116;2022-09-13T04:00:00;17.20;99.90
20946;DHT22;10632;51.276;7.116;2022-09-13T04:02:31;17.10;99.90
20946;DHT22;10632;51.276;7.116;2022-09-13T04:04:58;17.00;99.90
20946;DHT22;10632;51.276;7.116;2022-09-13T04:07:34;16.90;99.90
20946;DHT22;10632;51.276;7.116;2022-09-13T04:10:14;16.80;99.90
20946;DHT22;10632;51.276;7.116;2022-09-13T04:12:48;16.70;99.90
20946;DHT22;10632;51.276;7.116;2022-09-13T04:15:22;16.70;99.90
20946;DHT22;10632;51.276;7.116;2022-09-13T04:17:59;16.70;99.90
20946;DHT22;10632;51.276;7.116;2022-09-13T04:20:29;16.60;99.90
20946;DHT22;10632;51.276;7.116;2022-09-13T04:23:06;16.60;99.90
20946;DHT22;10632;51.276;7.116;2022-09-13T04:25:41;16.60;99.90
20946;DHT22;10632;51.276;7.116;2022-09-13T04:28:18;16.60;99.90
20946;DHT22;10632;51.276;7.116;2022-09-13T04:30:53;16.60;99.90
20946;DHT22;10632;51.276;7.116;2022-09-13T04:33:22;16.60;99.90
20946;DHT22;10632;51.276;7.116;2022-09-13T04:35:53;16.60;99.90
20946;DHT22;10632;51.276;7.116;2022-09-13T04:38:22;16.70;99.90
20946;DHT22;10632;51.276;7.116;2022-09-13T04:40:53;16.60;99.90
20946;DHT22;10632;51.276;7.116;2022-09-13T04:43:21;16.70;99.90
20946;DHT22;10632;51.276;7.116;2022-09-13T04:45:50;16.70;99.90
20946;DHT22;10632;51.276;7.116;2022-09-13T04:48:32;16.70;99.90
20946;DHT22;10632;51.276;7.116;2022-09-13T04:51:26;16.80;99.90
20946;DHT22;10632;51.276;7.116;2022-09-13T04:54:03;16.90;99.90
20946;DHT22;10632;51.276;7.116;2022-09-13T04:56:37;16.90;99.90
20946;DHT22;10632;51.276;7.116;2022-09-13T04:59:29;16.90;99.90
20946;DHT22;10632;51.276;7.116;2022-09-13T05:01:56;17.00;99.90
20946;DHT22;10632;51.276;7.116;2022-09-13T05:04:28;17.00;99.90
20946;DHT22;10632;51.276;7.116;2022-09-13T05:07:01;17.00;99.90
20946;DHT22;10632;51.276;7.116;2022-09-13T05:09:28;17.10;99.90
20946;DHT22;10632;51.276;7.116;2022-09-13T05:11:56;17.10;99.90
20946;DHT22;10632;51.276;7.116;2022-09-13T05:14:23;17.10;99.90
20946;DHT22;10632;51.276;7.116;2022-09-13T05:16:50;17.10;99.90
20946;DHT22;10632;51.276;7.116;2022-09-13T05:19:17;17.10;99.90
20946;DHT22;10632;51.276;7.116;2022-09-13T05:21:44;17.10;99.90
20946;DHT22;10632;51.276;7.116;2022-09-13T05:24:19;17.10;99.90
20946;DHT22;10632;51.276;7.116;2022-09-13T05:26:50;17.10;99.90
20946;DHT22;10632;51.276;7.116;2022-09-13T05:29:19;17.10;99.90
20946;DHT22;10632;51.276;7.116;2022-09-13T05:31:46;17.10;99.90
20946;DHT22;10632;51.276;7.116;2022-09-13T05:34:15;17.10;99.90
20946;DHT22;10632;51.276;7.116;2022-09-13T05:36:45;17.10;99.90
20946;DHT22;10632;51.276;7.116;2022-09-13T05:39:16;17.10;99.90
20946;DHT22;10632;51.276;7.116;2022-09-13T05:41:43;17.10;99.90
20946;DHT22;10632;51.276;7.116;2022-09-13T05:44:10;17.10;99.90
20946;DHT22;10632;51.276;7.116;2022-09-13T05:46:45;17.10;99.90
20946;DHT22;10632;51.276;7.116;2022-09-13T05:49:13;17.10;99.90
20946;DHT22;10632;51.276;7.116;2022-09-13T05:51:40;17.10;99.90
20946;DHT22;10632;51.276;7.116;2022-09-13T05:54:10;17.20;99.90
20946;DHT22;10632;51.276;7.116;2022-09-13T05:56:37;17.10;99.90
20946;DHT22;10632;51.276;7.116;2022-09-13T05:59:10;17.10;99.90
20946;DHT22;10632;51.276;7.116;2022-09-13T06:01:38;17.10;99.90
20946;DHT22;10632;51.276;7.116;2022-09-13T06:04:06;17.20;99.90
20946;DHT22;10632;51.276;7.116;2022-09-13T06:06:38;17.20;99.90
20946;DHT22;10632;51.276;7.116;2022-09-13T06:09:06;17.20;99.90
20946;DHT22;10632;51.276;7.116;2022-09-13T06:11:33;17.20;99.90
20946;DHT22;10632;51.276;7.116;2022-09-13T06:14:01;17.10;99.90
20946;DHT22;10632;51.276;7.116;2022-09-13T06:16:28;17.10;99.90
20946;DHT22;10632;51.276;7.116;2022-09-13T06:18:54;17.10;99.90
20946;DHT22;10632;51.276;7.116;2022-09-13T06:21:29;17.10;99.90
20946;DHT22;10632;51.276;7.116;2022-09-13T06:23:56;17.20;99.90
20946;DHT22;10632;51.276;7.116;2022-09-13T06:29:02;17.20;99.90
20946;DHT22;10632;51.276;7.116;2022-09-13T06:31:35;17.20;99.90
20946;DHT22;10632;51.276;7.116;2022-09-13T06:34:10;17.20;99.90
20946;DHT22;10632;51.276;7.116;2022-09-13T06:36:39;17.20;99.90
20946;DHT22;10632;51.276;7.116;2022-09-13T06:39:07;17.20;99.90
20946;DHT22;10632;51.276;7.116;2022-09-13T06:41:34;17.20;99.90
20946;DHT22;10632;51.276;7.116;2022-09-13T06:44:02;17.20;99.90
20946;DHT22;10632;51.276;7.116;2022-09-13T06:46:30;17.20;99.90
20946;DHT22;10632;51.276;7.116;2022-09-13T06:48:59;17.20;99.90
20946;DHT22;10632;51.276;7.116;2022-09-13T06:51:27;17.20;99.90
20946;DHT22;10632;51.276;7.116;2022-09-13T06:53:59;17.20;99.90
20946;DHT22;10632;51.276;7.116;2022-09-13T06:56:28;17.20;99.90
20946;DHT22;10632;51.276;7.116;2022-09-13T06:58:58;17.30;99.90
20946;DHT22;10632;51.276;7.116;2022-09-13T07:01:27;17.30;99.90
20946;DHT22;10632;51.276;7.116;2022-09-13T07:03:59;17.40;99.90
20946;DHT22;10632;51.276;7.116;2022-09-13T07:06:28;17.40;99.90
20946;DHT22;10632;51.276;7.116;2022-09-13T07:08:58;17.40;99.90
20946;DHT22;10632;51.276;7.116;2022-09-13T07:11:29;17.50;99.90
20946;DHT22;10632;51.276;7.116;2022-09-13T07:13:57;17.60;99.90
20946;DHT22;10632;51.276;7.116;2022-09-13T07:16:29;17.60;99.90
20946;DHT22;10632;51.276;7.116;2022-09-13T07:18:58;17.60;99.90
20946;DHT22;10632;51.276;7.116;2022-09-13T07:21:25;17.70;99.90
20946;DHT22;10632;51.276;7.116;2022-09-13T07:23:53;17.70;99.90
20946;DHT22;10632;51.276;7.116;2022-09-13T07:26:22;17.70;99.90
20946;DHT22;10632;51.276;7.116;2022-09-13T07:28:51;17.80;99.90
20946;DHT22;10632;51.276;7.116;2022-09-13T07:31:20;17.80;99.90
20946;DHT22;10632;51.276;7.116;2022-09-13T07:33:51;17.80;99.90
20946;DHT22;10632;51.276;7.116;2022-09-13T07:36:19;17.90;99.90
20946;DHT22;10632;51.276;7.116;2022-09-13T07:38:45;17.90;99.90
20946;DHT22;10632;51.276;7.116;2022-09-13T07:41:14;18.00;99.90
20946;DHT22;10632;51.276;7.116;2022-09-13T07:43:44;18.00;99.90
20946;DHT22;10632;51.276;7.116;2022-09-13T07:46:12;18.10;99.90
20946;DHT22;10632;51.276;7.116;2022-09-13T07:48:41;18.10;99.90
20946;DHT22;10632;51.276;7.116;2022-09-13T07:51:10;18.20;99.90
20946;DHT22;10632;51.276;7.116;2022-09-13T07:53:38;18.20;99.90
20946;DHT22;10632;51.276;7.116;2022-09-13T07:56:07;18.20;99.90
20946;DHT22;10632;51.276;7.116;2022-09-13T07:58:35;18.20;99.90
20946;DHT22;10632;51.276;7.116;2022-09-13T08:01:06;18.30;99.90
20946;DHT22;10632;51.276;7.116;2022-09-13T08:03:34;18.30;99.90
20946;DHT22;10632;51.276;7.116;2022-09-13T08:06:02;18.40;99.90
20946;DHT22;10632;51.276;7.116;2022-09-13T08:08:31;18.40;99.90
20946;DHT22;10632;51.276;7.116;2022-09-13T08:10:59;18.50;99.90
20946;DHT22;10632;51.276;7.116;2022-09-13T08:13:27;18.50;99.90
20946;DHT22;10632;51.276;7.116;2022-09-13T08:15:54;18.60;99.90
20946;DHT22;10632;51.276;7.116;2022-09-13T08:18:23;18.60;99.90
20946;DHT22;10632;51.276;7.116;2022-09-13T08:20:50;18.60;99.90
20946;DHT22;10632;51.276;7.116;2022-09-13T08:23:16;18.60;99.90
20946;DHT22;10632;51.276;7.116;2022-09-13T08:25:43;18.70;99.90
20946;DHT22;10632;51.276;7.116;2022-09-13T08:28:14;18.70;99.90
20946;DHT22;10632;51.276;7.116;2022-09-13T08:30:41;18.80;99.90
20946;DHT22;10632;51.276;7.116;2022-09-13T08:33:09;18.80;99.90
20946;DHT22;10632;51.276;7.116;2022-09-13T08:35:40;18.90;99.90
20946;DHT22;10632;51.276;7.116;2022-09-13T08:38:07;18.90;99.90
20946;DHT22;10632;51.276;7.116;2022-09-13T08:40:39;19.00;99.90
20946;DHT22;10632;51.276;7.116;2022-09-13T08:43:14;19.00;99.90
20946;DHT22;10632;51.276;7.116;2022-09-13T08:45:51;19.10;99.90
20946;DHT22;10632;51.276;7.116;2022-09-13T08:48:29;19.10;99.90
20946;DHT22;10632;51.276;7.116;2022-09-13T08:51:02;19.20;99.90
20946;DHT22;10632;51.276;7.116;2022-09-13T08:53:42;19.20;99.90
20946;DHT22;10632;51.276;7.116;2022-09-13T08:56:12;19.20;99.90
20946;DHT22;10632;51.276;7.116;2022-09-13T08:59:04;19.30;99.90
20946;DHT22;10632;51.276;7.116;2022-09-13T09:01:46;19.30;99.90
20946;DHT22;10632;51.276;7.116;2022-09-13T09:04:37;19.40;99.90
20946;DHT22;10632;51.276;7.116;2022-09-13T09:07:10;19.50;99.90
20946;DHT22;10632;51.276;7.116;2022-09-13T09:09:43;19.60;99.90
20946;DHT22;10632;51.276;7.116;2022-09-13T09:12:18;19.70;99.90
20946;DHT22;10632;51.276;7.116;2022-09-13T09:15:00;19.70;99.90
20946;DHT22;10632;51.276;7.116;2022-09-13T09:17:33;19.80;99.90
20946;DHT22;10632;51.276;7.116;2022-09-13T09:20:07;19.90;99.90
20946;DHT22;10632;51.276;7.116;2022-09-13T09:22:38;19.90;99.90
20946;DHT22;10632;51.276;7.116;2022-09-13T09:25:08;20.00;99.90
20946;DHT22;10632;51.276;7.116;2022-09-13T09:27:36;20.00;99.90
20946;DHT22;10632;51.276;7.116;2022-09-13T09:30:10;20.10;99.90
20946;DHT22;10632;51.276;7.116;2022-09-13T09:32:49;20.10;99.90
20946;DHT22;10632;51.276;7.116;2022-09-13T09:35:27;20.10;99.90
20946;DHT22;10632;51.276;7.116;2022-09-13T09:38:13;20.20;99.90
20946;DHT22;10632;51.276;7.116;2022-09-13T09:40:44;20.30;99.90
20946;DHT22;10632;51.276;7.116;2022-09-13T09:43:16;20.40;99.90
20946;DHT22;10632;51.276;7.116;2022-09-13T09:45:43;20.50;99.90
20946;DHT22;10632;51.276;7.116;2022-09-13T09:48:17;20.50;99.90
20946;DHT22;10632;51.276;7.116;2022-09-13T09:50:49;20.50;99.90
20946;DHT22;10632;51.276;7.116;2022-09-13T09:53:23;20.60;99.90
20946;DHT22;10632;51.276;7.116;2022-09-13T09:55:57;20.70;99.90
20946;DHT22;10632;51.276;7.116;2022-09-13T09:58:36;20.70;99.90
20946;DHT22;10632;51.276;7.116;2022-09-13T10:01:04;20.80;99.90
20946;DHT22;10632;51.276;7.116;2022-09-13T10:03:33;20.90;99.90
20946;DHT22;10632;51.276;7.116;2022-09-13T10:06:05;21.00;99.90
20946;DHT22;10632;51.276;7.116;2022-09-13T10:08:35;21.10;99.90
20946;DHT22;10632;51.276;7.116;2022-09-13T10:11:08;21.30;99.90
20946;DHT22;10632;51.276;7.116;2022-09-13T10:13:36;21.30;99.90
20946;DHT22;10632;51.276;7.116;2022-09-13T10:16:04;21.50;99.90
20946;DHT22;10632;51.276;7.116;2022-09-13T10:18:33;21.60;99.90
20946;DHT22;10632;51.276;7.116;2022-09-13T10:21:03;21.60;99.90
20946;DHT22;10632;51.276;7.116;2022-09-13T10:23:34;21.60;99.90
20946;DHT22;10632;51.276;7.116;2022-09-13T10:26:04;21.70;99.90
20946;DHT22;10632;51.276;7.116;2022-09-13T10:28:34;21.70;99.90
20946;DHT22;10632;51.276;7.116;2022-09-13T10:31:06;21.80;99.90
20946;DHT22;10632;51.276;7.116;2022-09-13T10:33:36;21.90;99.90
20946;DHT22;10632;51.276;7.116;2022-09-13T10:36:07;22.10;99.90
20946;DHT22;10632;51.276;7.116;2022-09-13T10:38:40;22.30;99.90
20946;DHT22;10632;51.276;7.116;2022-09-13T10:41:10;22.50;99.90
20946;DHT22;10632;51.276;7.116;2022-09-13T10:43:46;22.70;99.90
20946;DHT22;10632;51.276;7.116;2022-09-13T10:46:21;22.90;99.90
20946;DHT22;10632;51.276;7.116;2022-09-13T10:48:49;23.20;99.90
20946;DHT22;10632;51.276;7.116;2022-09-13T10:51:30;23.30;99.90
20946;DHT22;10632;51.276;7.116;2022-09-13T10:54:17;23.30;99.90
20946;DHT22;10632;51.276;7.116;2022-09-13T10:56:45;23.50;99.90
20946;DHT22;10632;51.276;7.116;2022-09-13T10:59:19;23.60;99.90
20946;DHT22;10632;51.276;7.116;2022-09-13T11:01:58;23.80;99.90
20946;DHT22;10632;51.276;7.116;2022-09-13T11:05:03;24.00;99.90
20946;DHT22;10632;51.276;7.116;2022-09-13T11:07:50;24.20;99.90
20946;DHT22;10632;51.276;7.116;2022-09-13T11:10:29;24.40;99.90
20946;DHT22;10632;51.276;7.116;2022-09-13T11:13:06;24.60;99.90
20946;DHT22;10632;51.276;7.116;2022-09-13T11:15:49;24.70;99.90
20946;DHT22;10632;51.276;7.116;2022-09-13T11:21:24;25.20;99.90
20946;DHT22;10632;51.276;7.116;2022-09-13T11:24:15;25.30;99.90
20946;DHT22;10632;51.276;7.116;2022-09-13T11:26:57;25.40;99.90
20946;DHT22;10632;51.276;7.116;2022-09-13T11:29:36;25.40;99.90
20946;DHT22;10632;51.276;7.116;2022-09-13T11:32:18;25.30;99.90
20946;DHT22;10632;51.276;7.116;2022-09-13T11:35:00;25.20;99.90
20946;DHT22;10632;51.276;7.116;2022-09-13T11:37:43;25.20;99.90
20946;DHT22;10632;51.276;7.116;2022-09-13T11:40:28;25.10;99.90
20946;DHT22;10632;51.276;7.116;2022-09-13T11:43:08;25.20;99.90
20946;DHT22;10632;51.276;7.116;2022-09-13T11:45:43;25.10;99.90
20946;DHT22;10632;51.276;7.116;2022-09-13T11:48:28;25.10;99.90
20946;DHT22;10632;51.276;7.116;2022-09-13T11:51:03;25.10;99.90
20946;DHT22;10632;51.276;7.116;2022-09-13T11:53:55;25.00;99.90
20946;DHT22;10632;51.276;7.116;2022-09-13T11:56:30;25.00;99.90
20946;DHT22;10632;51.276;7.116;2022-09-13T11:59:09;25.10;99.90
20946;DHT22;10632;51.276;7.116;2022-09-13T12:01:43;25.10;99.90
20946;DHT22;10632;51.276;7.116;2022-09-13T12:04:16;25.00;99.90
20946;DHT22;10632;51.276;7.116;2022-09-13T12:06:47;25.00;99.90
20946;DHT22;10632;51.276;7.116;2022-09-13T12:09:18;25.10;99.90
20946;DHT22;10632;51.276;7.116;2022-09-13T12:11:49;25.20;99.90
20946;DHT22;10632;51.276;7.116;2022-09-13T12:14:22;25.30;99.90
20946;DHT22;10632;51.276;7.116;2022-09-13T12:16:53;25.30;99.90
20946;DHT22;10632;51.276;7.116;2022-09-13T12:19:26;25.30;99.90
20946;DHT22;10632;51.276;7.116;2022-09-13T12:21:56;25.40;99.90
20946;DHT22;10632;51.276;7.116;2022-09-13T12:24:36;25.50;99.90
20946;DHT22;10632;51.276;7.116;2022-09-13T12:27:09;25.70;99.90
20946;DHT22;10632;51.276;7.116;2022-09-13T12:29:44;25.70;99.90
20946;DHT22;10632;51.276;7.116;2022-09-13T12:32:14;25.70;99.90
20946;DHT22;10632;51.276;7.116;2022-09-13T12:34:45;25.90;99.90
20946;DHT22;10632;51.276;7.116;2022-09-13T12:37:31;26.00;99.90
20946;DHT22;10632;51.276;7.116;2022-09-13T12:40:22;26.20;99.90
20946;DHT22;10632;51.276;7.116;2022-09-13T12:43:14;26.40;99.90
20946;DHT22;10632;51.276;7.116;2022-09-13T12:46:13;26.50;99.90
20946;DHT22;10632;51.276;7.116;2022-09-13T12:49:03;26.60;99.90
20946;DHT22;10632;51.276;7.116;2022-09-13T12:51:50;26.80;99.90
20946;DHT22;10632;51.276;7.116;2022-09-13T12:54:35;27.00;99.60
20946;DHT22;10632;51.276;7.116;2022-09-13T12:57:21;27.20;99.60
20946;DHT22;10632;51.276;7.116;2022-09-13T13:00:25;27.40;99.00
20946;DHT22;10632;51.276;7.116;2022-09-13T13:03:02;27.60;99.00
20946;DHT22;10632;51.276;7.116;2022-09-13T13:05:38;27.90;98.60
20946;DHT22;10632;51.276;7.116;2022-09-13T13:08:22;28.00;98.60
20946;DHT22;10632;51.276;7.116;2022-09-13T13:11:00;28.30;98.50
20946;DHT22;10632;51.276;7.116;2022-09-13T13:13:33;28.60;97.60
20946;DHT22;10632;51.276;7.116;2022-09-13T13:16:22;28.70;97.50
20946;DHT22;10632;51.276;7.116;2022-09-13T13:18:53;28.70;96.70
20946;DHT22;10632;51.276;7.116;2022-09-13T13:21:27;28.50;96.80
20946;DHT22;10632;51.276;7.116;2022-09-13T13:26:59;27.70;97.50
20946;DHT22;10632;51.276;7.116;2022-09-13T13:29:27;27.30;97.70
20946;DHT22;10632;51.276;7.116;2022-09-13T13:32:10;27.00;98.00
20946;DHT22;10632;51.276;7.116;2022-09-13T13:34:44;26.60;98.90
20946;DHT22;10632;51.276;7.116;2022-09-13T13:37:27;26.30;99.20
20946;DHT22;10632;51.276;7.116;2022-09-13T13:40:19;26.00;99.60
20946;DHT22;10632;51.276;7.116;2022-09-13T13:42:47;25.90;99.90
20946;DHT22;10632;51.276;7.116;2022-09-13T13:45:18;25.80;99.90
20946;DHT22;10632;51.276;7.116;2022-09-13T13:48:08;25.70;99.90
20946;DHT22;10632;51.276;7.116;2022-09-13T13:53:38;25.60;99.30
20946;DHT22;10632;51.276;7.116;2022-09-13T13:58:59;25.50;99.90
20946;DHT22;10632;51.276;7.116;2022-09-13T14:01:31;25.40;99.90
20946;DHT22;10632;51.276;7.116;2022-09-13T14:07:12;25.30;99.90
20946;DHT22;10632;51.276;7.116;2022-09-13T14:09:48;25.20;99.90
20946;DHT22;10632;51.276;7.116;2022-09-13T14:12:25;25.20;99.90
20946;DHT22;10632;51.276;7.116;2022-09-13T14:15:12;25.20;99.90
20946;DHT22;10632;51.276;7.116;2022-09-13T14:17:57;25.10;99.90
20946;DHT22;10632;51.276;7.116;2022-09-13T14:20:27;24.90;99.90
20946;DHT22;10632;51.276;7.116;2022-09-13T14:23:14;24.90;99.90
20946;DHT22;10632;51.276;7.116;2022-09-13T14:25:44;24.80;99.90
20946;DHT22;10632;51.276;7.116;2022-09-13T14:28:13;24.70;99.90
20946;DHT22;10632;51.276;7.116;2022-09-13T14:30:51;24.60;99.90
20946;DHT22;10632;51.276;7.116;2022-09-13T14:33:23;24.50;99.90
20946;DHT22;10632;51.276;7.116;2022-09-13T14:35:57;24.50;99.90
20946;DHT22;10632;51.276;7.116;2022-09-13T14:38:26;24.40;99.90
20946;DHT22;10632;51.276;7.116;2022-09-13T14:41:01;24.40;99.90
20946;DHT22;10632;51.276;7.116;2022-09-13T14:43:29;24.40;99.90
20946;DHT22;10632;51.276;7.116;2022-09-13T14:46:01;24.40;99.90
20946;DHT22;10632;51.276;7.116;2022-09-13T14:48:33;24.30;99.90
20946;DHT22;10632;51.276;7.116;2022-09-13T14:51:05;24.30;99.90
20946;DHT22;10632;51.276;7.116;2022-09-13T14:53:34;24.20;99.90
20946;DHT22;10632;51.276;7.116;2022-09-13T14:56:05;24.20;99.90
20946;DHT22;10632;51.276;7.116;2022-09-13T14:58:38;24.20;99.90
20946;DHT22;10632;51.276;7.116;2022-09-13T15:01:13;24.10;99.90
20946;DHT22;10632;51.276;7.116;2022-09-13T15:03:42;24.00;99.90
20946;DHT22;10632;51.276;7.116;2022-09-13T15:06:21;24.00;99.90
20946;DHT22;10632;51.276;7.116;2022-09-13T15:08:49;24.00;99.90
20946;DHT22;10632;51.276;7.116;2022-09-13T15:11:29;23.90;99.90
20946;DHT22;10632;51.276;7.116;2022-09-13T15:14:17;23.90;99.90
20946;DHT22;10632;51.276;7.116;2022-09-13T15:16:47;23.80;99.90
20946;DHT22;10632;51.276;7.116;2022-09-13T15:19:29;23.70;99.90
20946;DHT22;10632;51.276;7.116;2022-09-13T15:22:20;23.70;99.90
20946;DHT22;10632;51.276;7.116;2022-09-13T15:24:50;23.70;99.90
20946;DHT22;10632;51.276;7.116;2022-09-13T15:27:25;23.70;99.90
20946;DHT22;10632;51.276;7.116;2022-09-13T15:29:54;23.60;99.90
20946;DHT22;10632;51.276;7.116;2022-09-13T15:32:24;23.60;99.90
20946;DHT22;10632;51.276;7.116;2022-09-13T15:34:56;23.50;99.90
20946;DHT22;10632;51.276;7.116;2022-09-13T15:37:29;23.50;99.90
20946;DHT22;10632;51.276;7.116;2022-09-13T15:40:13;23.40;99.90
20946;DHT22;10632;51.276;7.116;2022-09-13T15:42:46;23.40;99.90
20946;DHT22;10632;51.276;7.116;2022-09-13T15:45:13;23.40;99.90
20946;DHT22;10632;51.276;7.116;2022-09-13T15:47:40;23.40;99.90
20946;DHT22;10632;51.276;7.116;2022-09-13T15:50:18;23.30;99.90
20946;DHT22;10632;51.276;7.116;2022-09-13T15:52:45;23.30;99.90
20946;DHT22;10632;51.276;7.116;2022-09-13T15:55:12;23.30;99.90
20946;DHT22;10632;51.276;7.116;2022-09-13T15:57:39;23.30;99.90
20946;DHT22;10632;51.276;7.116;2022-09-13T16:00:21;23.30;99.90
20946;DHT22;10632;51.276;7.116;2022-09-13T16:02:49;23.20;99.90
20946;DHT22;10632;51.276;7.116;2022-09-13T16:05:18;23.20;99.90
20946;DHT22;10632;51.276;7.116;2022-09-13T16:07:45;23.20;99.90
20946;DHT22;10632;51.276;7.116;2022-09-13T16:10:14;23.20;99.90
20946;DHT22;10632;51.276;7.116;2022-09-13T16:12:42;23.10;99.90
20946;DHT22;10632;51.276;7.116;2022-09-13T16:15:09;23.10;99.90
20946;DHT22;10632;51.276;7.116;2022-09-13T16:17:38;23.00;99.90
20946;DHT22;10632;51.276;7.116;2022-09-13T16:20:09;23.00;99.90
20946;DHT22;10632;51.276;7.116;2022-09-13T16:22:36;22.90;99.90
20946;DHT22;10632;51.276;7.116;2022-09-13T16:25:04;22.90;99.90
20946;DHT22;10632;51.276;7.116;2022-09-13T16:27:31;22.80;99.90
20946;DHT22;10632;51.276;7.116;2022-09-13T16:29:58;22.80;99.90
20946;DHT22;10632;51.276;7.116;2022-09-13T16:32:25;22.80;99.90
20946;DHT22;10632;51.276;7.116;2022-09-13T16:34:53;22.80;99.90
20946;DHT22;10632;51.276;7.116;2022-09-13T16:37:20;22.80;99.90
20946;DHT22;10632;51.276;7.116;2022-09-13T16:39:47;22.80;99.90
20946;DHT22;10632;51.276;7.116;2022-09-13T16:42:15;22.80;99.90